Airfield :
LOGIN :

Register | Disclaimer

   EN    FR    IT 

 










Legend :    VFR   Marginal VFR   IFR   Intensive IFR   Very Intensive IFR
Visi :
Ceiling :
>= 8 km
>= 3000ft
5 to 8 km
1000 to 3000 ft
1500m to 5 km
500 to 1000 ft
800 to 1500m
200 to 500 ft
< 800m
< 200 ft
Symbols :   Thunderstorms  Fog  Heavy snow  Heavy precipitations  Wind > 20 kt
SIGMETs :     Misc.  Thunderstorms  Icing  Turbulence  Mountain Waves  Volcanic Ashes






- Airport Elevation : 69 ft
- IATA code : AES


ENAL - Ålesund

CURRENT METAR :
  • 081520Z 13012KT CAVOK 00/M09 Q1013

EXPIRED METARs :
  • 081450Z 14012KT CAVOK 01/M09 Q1014
  • 081420Z 14013KT CAVOK 00/M09 Q1014
  • 081350Z 14012KT CAVOK 00/M09 Q1014
  • 081320Z 14013KT CAVOK 00/M08 Q1014
  • 081250Z 14013KT CAVOK 00/M07 Q1014
  • 081220Z 14012KT CAVOK 00/M07 Q1014
  • 081150Z 14011KT CAVOK 00/M07 Q1014
  • 081120Z 14012KT CAVOK 00/M08 Q1014
  • 081050Z 15011KT CAVOK 00/M08 Q1015

TAF TAF ENAL
Valid from the 08 at 15:00 until the 08 at 23:00 UTC


081400Z 0815/0823 14012KT CAVOK



MET'MAP, your aeronautical weather chart ! - Copyright ORBIFLY December 2007 - Disclaimer

ORBIFLY MET'MAP TEAM :

Programming & Development : Alexandra Zaïnal
Original concept : Baudouin d'Aumeries
Technical & hardware support : Manuel Goepfert
Assistance : Marc-Olivier Méhu




SOURCES & CREDITS :

   NOAA